sensor_id;sensor_type;location;lat;lon;timestamp;temperature;humidity
10468;DHT22;5281;48.878;9.394;2022-10-31T00:00:06;12.10;99.90
10468;DHT22;5281;48.878;9.394;2022-10-31T00:02:33;12.20;99.90
10468;DHT22;5281;48.878;9.394;2022-10-31T00:04:59;12.20;99.90
10468;DHT22;5281;48.878;9.394;2022-10-31T00:07:26;12.20;99.90
10468;DHT22;5281;48.878;9.394;2022-10-31T00:09:53;12.20;99.90
10468;DHT22;5281;48.878;9.394;2022-10-31T00:12:21;12.10;99.90
10468;DHT22;5281;48.878;9.394;2022-10-31T00:14:47;12.10;99.90
10468;DHT22;5281;48.878;9.394;2022-10-31T00:17:14;12.10;99.90
10468;DHT22;5281;48.878;9.394;2022-10-31T00:19:41;12.10;99.90
10468;DHT22;5281;48.878;9.394;2022-10-31T00:22:07;12.10;99.90
10468;DHT22;5281;48.878;9.394;2022-10-31T00:24:34;12.10;99.90
10468;DHT22;5281;48.878;9.394;2022-10-31T00:27:01;12.10;99.90
10468;DHT22;5281;48.878;9.394;2022-10-31T00:29:29;12.10;99.90
10468;DHT22;5281;48.878;9.394;2022-10-31T00:31:56;12.10;99.90
10468;DHT22;5281;48.878;9.394;2022-10-31T00:34:22;12.00;99.90
10468;DHT22;5281;48.878;9.394;2022-10-31T00:36:49;12.00;99.90
10468;DHT22;5281;48.878;9.394;2022-10-31T00:39:16;12.00;99.90
10468;DHT22;5281;48.878;9.394;2022-10-31T00:41:42;12.00;99.90
10468;DHT22;5281;48.878;9.394;2022-10-31T00:44:09;11.90;99.90
10468;DHT22;5281;48.878;9.394;2022-10-31T00:46:37;12.00;99.90
10468;DHT22;5281;48.878;9.394;2022-10-31T00:49:04;12.00;99.90
10468;DHT22;5281;48.878;9.394;2022-10-31T00:51:30;12.00;99.90
10468;DHT22;5281;48.878;9.394;2022-10-31T00:53:57;12.00;99.90
10468;DHT22;5281;48.878;9.394;2022-10-31T00:56:24;12.00;99.90
10468;DHT22;5281;48.878;9.394;2022-10-31T00:58:50;12.00;99.90
10468;DHT22;5281;48.878;9.394;2022-10-31T01:01:17;12.00;99.90
10468;DHT22;5281;48.878;9.394;2022-10-31T01:03:45;12.00;99.90
10468;DHT22;5281;48.878;9.394;2022-10-31T01:06:13;12.00;99.90
10468;DHT22;5281;48.878;9.394;2022-10-31T01:08:40;12.00;99.90
10468;DHT22;5281;48.878;9.394;2022-10-31T01:11:09;11.90;99.90
10468;DHT22;5281;48.878;9.394;2022-10-31T01:13:36;11.90;99.90
10468;DHT22;5281;48.878;9.394;2022-10-31T01:16:04;11.90;99.90
10468;DHT22;5281;48.878;9.394;2022-10-31T01:18:32;11.90;99.90
10468;DHT22;5281;48.878;9.394;2022-10-31T01:21:03;11.90;99.90
10468;DHT22;5281;48.878;9.394;2022-10-31T01:23:30;12.00;99.90
10468;DHT22;5281;48.878;9.394;2022-10-31T01:26:01;12.00;99.90
10468;DHT22;5281;48.878;9.394;2022-10-31T01:28:28;12.00;99.90
10468;DHT22;5281;48.878;9.394;2022-10-31T01:30:55;12.00;99.90
10468;DHT22;5281;48.878;9.394;2022-10-31T01:33:21;11.90;99.90
10468;DHT22;5281;48.878;9.394;2022-10-31T01:35:48;12.00;99.90
10468;DHT22;5281;48.878;9.394;2022-10-31T01:38:16;12.00;99.90
10468;DHT22;5281;48.878;9.394;2022-10-31T01:40:43;12.10;99.90
10468;DHT22;5281;48.878;9.394;2022-10-31T01:43:12;12.10;99.90
10468;DHT22;5281;48.878;9.394;2022-10-31T01:45:40;12.10;99.90
10468;DHT22;5281;48.878;9.394;2022-10-31T01:48:12;12.10;99.90
10468;DHT22;5281;48.878;9.394;2022-10-31T01:50:40;12.10;99.90
10468;DHT22;5281;48.878;9.394;2022-10-31T01:53:09;12.10;99.90
10468;DHT22;5281;48.878;9.394;2022-10-31T01:55:41;12.10;99.90
10468;DHT22;5281;48.878;9.394;2022-10-31T01:58:11;12.10;99.90
10468;DHT22;5281;48.878;9.394;2022-10-31T02:00:43;12.20;99.90
10468;DHT22;5281;48.878;9.394;2022-10-31T02:03:11;12.20;99.90
10468;DHT22;5281;48.878;9.394;2022-10-31T02:05:38;12.20;99.90
10468;DHT22;5281;48.878;9.394;2022-10-31T02:08:08;12.20;99.90
10468;DHT22;5281;48.878;9.394;2022-10-31T02:10:38;12.20;99.90
10468;DHT22;5281;48.878;9.394;2022-10-31T02:13:07;12.30;99.90
10468;DHT22;5281;48.878;9.394;2022-10-31T02:15:36;12.30;99.90
10468;DHT22;5281;48.878;9.394;2022-10-31T02:18:04;12.30;99.90
10468;DHT22;5281;48.878;9.394;2022-10-31T02:20:34;12.30;99.90
10468;DHT22;5281;48.878;9.394;2022-10-31T02:23:37;12.30;99.90
10468;DHT22;5281;48.878;9.394;2022-10-31T02:26:29;12.40;99.90
10468;DHT22;5281;48.878;9.394;2022-10-31T02:32:08;12.30;99.90
10468;DHT22;5281;48.878;9.394;2022-10-31T02:34:40;12.30;99.90
10468;DHT22;5281;48.878;9.394;2022-10-31T02:37:13;12.20;99.90
10468;DHT22;5281;48.878;9.394;2022-10-31T02:39:47;12.20;99.90
10468;DHT22;5281;48.878;9.394;2022-10-31T02:42:20;12.20;99.90
10468;DHT22;5281;48.878;9.394;2022-10-31T02:44:55;12.30;99.90
10468;DHT22;5281;48.878;9.394;2022-10-31T02:47:27;12.30;99.90
10468;DHT22;5281;48.878;9.394;2022-10-31T02:49:57;12.30;99.90
10468;DHT22;5281;48.878;9.394;2022-10-31T02:52:28;12.30;99.90
10468;DHT22;5281;48.878;9.394;2022-10-31T02:54:55;12.30;99.90
10468;DHT22;5281;48.878;9.394;2022-10-31T02:57:24;12.20;99.90
10468;DHT22;5281;48.878;9.394;2022-10-31T02:59:54;12.10;99.90
10468;DHT22;5281;48.878;9.394;2022-10-31T03:05:41;12.10;99.90
10468;DHT22;5281;48.878;9.394;2022-10-31T03:08:16;11.80;99.90
10468;DHT22;5281;48.878;9.394;2022-10-31T03:10:49;12.00;99.90
10468;DHT22;5281;48.878;9.394;2022-10-31T03:13:24;12.00;99.90
10468;DHT22;5281;48.878;9.394;2022-10-31T03:16:02;12.00;99.90
10468;DHT22;5281;48.878;9.394;2022-10-31T03:18:34;11.90;99.90
10468;DHT22;5281;48.878;9.394;2022-10-31T03:21:06;11.90;99.90
10468;DHT22;5281;48.878;9.394;2022-10-31T03:23:37;11.90;99.90
10468;DHT22;5281;48.878;9.394;2022-10-31T03:26:06;11.80;99.90
10468;DHT22;5281;48.878;9.394;2022-10-31T03:28:38;11.80;99.90
10468;DHT22;5281;48.878;9.394;2022-10-31T03:31:07;11.80;99.90
10468;DHT22;5281;48.878;9.394;2022-10-31T03:33:38;11.80;99.90
10468;DHT22;5281;48.878;9.394;2022-10-31T03:36:08;11.70;99.90
10468;DHT22;5281;48.878;9.394;2022-10-31T03:38:39;11.70;99.90
10468;DHT22;5281;48.878;9.394;2022-10-31T03:41:11;11.70;99.90
10468;DHT22;5281;48.878;9.394;2022-10-31T03:43:43;11.70;99.90
10468;DHT22;5281;48.878;9.394;2022-10-31T03:46:13;11.60;99.90
10468;DHT22;5281;48.878;9.394;2022-10-31T03:48:41;11.50;99.90
10468;DHT22;5281;48.878;9.394;2022-10-31T03:51:13;11.50;99.90
10468;DHT22;5281;48.878;9.394;2022-10-31T03:53:47;11.50;99.90
10468;DHT22;5281;48.878;9.394;2022-10-31T03:56:21;11.50;99.90
10468;DHT22;5281;48.878;9.394;2022-10-31T03:58:54;11.50;99.90
10468;DHT22;5281;48.878;9.394;2022-10-31T04:01:23;11.60;99.90
10468;DHT22;5281;48.878;9.394;2022-10-31T04:03:52;11.50;99.90
10468;DHT22;5281;48.878;9.394;2022-10-31T04:06:21;11.50;99.90
10468;DHT22;5281;48.878;9.394;2022-10-31T04:08:52;11.60;99.90
10468;DHT22;5281;48.878;9.394;2022-10-31T04:11:23;11.60;99.90
10468;DHT22;5281;48.878;9.394;2022-10-31T04:13:52;11.60;99.90
10468;DHT22;5281;48.878;9.394;2022-10-31T04:16:20;11.60;99.90
10468;DHT22;5281;48.878;9.394;2022-10-31T04:18:48;11.60;99.90
10468;DHT22;5281;48.878;9.394;2022-10-31T04:21:16;11.70;99.90
10468;DHT22;5281;48.878;9.394;2022-10-31T04:23:43;11.70;99.90
10468;DHT22;5281;48.878;9.394;2022-10-31T04:26:11;11.70;99.90
10468;DHT22;5281;48.878;9.394;2022-10-31T04:28:37;11.80;99.90
10468;DHT22;5281;48.878;9.394;2022-10-31T04:31:04;11.80;99.90
10468;DHT22;5281;48.878;9.394;2022-10-31T04:33:31;11.80;99.90
10468;DHT22;5281;48.878;9.394;2022-10-31T04:35:58;11.80;99.90
10468;DHT22;5281;48.878;9.394;2022-10-31T04:38:26;11.80;99.90
10468;DHT22;5281;48.878;9.394;2022-10-31T04:40:52;11.90;99.90
10468;DHT22;5281;48.878;9.394;2022-10-31T04:43:19;11.90;99.90
10468;DHT22;5281;48.878;9.394;2022-10-31T04:45:46;11.80;99.90
10468;DHT22;5281;48.878;9.394;2022-10-31T04:48:13;11.80;99.90
10468;DHT22;5281;48.878;9.394;2022-10-31T04:50:40;11.80;99.90
10468;DHT22;5281;48.878;9.394;2022-10-31T04:53:06;11.80;99.90
10468;DHT22;5281;48.878;9.394;2022-10-31T04:55:35;11.70;99.90
10468;DHT22;5281;48.878;9.394;2022-10-31T04:58:01;11.60;99.90
10468;DHT22;5281;48.878;9.394;2022-10-31T05:00:28;11.60;99.90
10468;DHT22;5281;48.878;9.394;2022-10-31T05:02:56;11.60;99.90
10468;DHT22;5281;48.878;9.394;2022-10-31T05:05:25;11.50;99.90
10468;DHT22;5281;48.878;9.394;2022-10-31T05:07:53;11.50;99.90
10468;DHT22;5281;48.878;9.394;2022-10-31T05:10:22;11.40;99.90
10468;DHT22;5281;48.878;9.394;2022-10-31T05:12:52;11.40;99.90
10468;DHT22;5281;48.878;9.394;2022-10-31T05:15:20;11.40;99.90
10468;DHT22;5281;48.878;9.394;2022-10-31T05:17:48;11.30;99.90
10468;DHT22;5281;48.878;9.394;2022-10-31T05:20:16;11.20;99.90
10468;DHT22;5281;48.878;9.394;2022-10-31T05:22:43;11.20;99.90
10468;DHT22;5281;48.878;9.394;2022-10-31T05:25:11;11.20;99.90
10468;DHT22;5281;48.878;9.394;2022-10-31T05:27:39;11.10;99.90
10468;DHT22;5281;48.878;9.394;2022-10-31T05:30:08;11.10;99.90
10468;DHT22;5281;48.878;9.394;2022-10-31T05:32:38;11.10;99.90
10468;DHT22;5281;48.878;9.394;2022-10-31T05:35:06;11.10;99.90
10468;DHT22;5281;48.878;9.394;2022-10-31T05:37:33;11.10;99.90
10468;DHT22;5281;48.878;9.394;2022-10-31T05:40:00;11.10;99.90
10468;DHT22;5281;48.878;9.394;2022-10-31T05:42:27;11.10;99.90
10468;DHT22;5281;48.878;9.394;2022-10-31T05:44:53;11.00;99.90
10468;DHT22;5281;48.878;9.394;2022-10-31T05:47:22;11.00;99.90
10468;DHT22;5281;48.878;9.394;2022-10-31T05:49:49;11.00;99.90
10468;DHT22;5281;48.878;9.394;2022-10-31T05:52:15;11.00;99.90
10468;DHT22;5281;48.878;9.394;2022-10-31T05:54:42;11.00;99.90
10468;DHT22;5281;48.878;9.394;2022-10-31T05:57:09;11.00;99.90
10468;DHT22;5281;48.878;9.394;2022-10-31T05:59:36;11.00;99.90
10468;DHT22;5281;48.878;9.394;2022-10-31T06:02:02;11.00;99.90
10468;DHT22;5281;48.878;9.394;2022-10-31T06:04:30;11.00;99.90
10468;DHT22;5281;48.878;9.394;2022-10-31T06:06:57;11.00;99.90
10468;DHT22;5281;48.878;9.394;2022-10-31T06:09:24;11.00;99.90
10468;DHT22;5281;48.878;9.394;2022-10-31T06:11:50;11.00;99.90
10468;DHT22;5281;48.878;9.394;2022-10-31T06:14:17;11.00;99.90
10468;DHT22;5281;48.878;9.394;2022-10-31T06:16:44;11.00;99.90
10468;DHT22;5281;48.878;9.394;2022-10-31T06:19:11;11.10;99.90
10468;DHT22;5281;48.878;9.394;2022-10-31T06:21:39;11.10;99.90
10468;DHT22;5281;48.878;9.394;2022-10-31T06:24:05;11.20;99.90
10468;DHT22;5281;48.878;9.394;2022-10-31T06:26:32;11.20;99.90
10468;DHT22;5281;48.878;9.394;2022-10-31T06:28:59;11.20;99.90
10468;DHT22;5281;48.878;9.394;2022-10-31T06:31:26;11.20;99.90
10468;DHT22;5281;48.878;9.394;2022-10-31T06:33:52;11.30;99.90
10468;DHT22;5281;48.878;9.394;2022-10-31T06:36:19;11.30;99.90
10468;DHT22;5281;48.878;9.394;2022-10-31T06:38:47;11.40;99.90
10468;DHT22;5281;48.878;9.394;2022-10-31T06:41:14;11.40;99.90
10468;DHT22;5281;48.878;9.394;2022-10-31T06:43:40;11.60;99.90
10468;DHT22;5281;48.878;9.394;2022-10-31T06:46:07;11.70;99.90
10468;DHT22;5281;48.878;9.394;2022-10-31T06:48:34;12.00;99.90
10468;DHT22;5281;48.878;9.394;2022-10-31T06:51:01;12.40;99.90
10468;DHT22;5281;48.878;9.394;2022-10-31T06:53:28;12.90;99.90
10468;DHT22;5281;48.878;9.394;2022-10-31T06:55:56;13.20;99.90
10468;DHT22;5281;48.878;9.394;2022-10-31T06:58:23;13.30;99.90
10468;DHT22;5281;48.878;9.394;2022-10-31T07:00:50;13.20;99.90
10468;DHT22;5281;48.878;9.394;2022-10-31T07:03:17;13.20;99.90
10468;DHT22;5281;48.878;9.394;2022-10-31T07:05:45;13.10;99.90
10468;DHT22;5281;48.878;9.394;2022-10-31T07:08:13;13.10;99.90
10468;DHT22;5281;48.878;9.394;2022-10-31T07:10:41;13.00;99.90
10468;DHT22;5281;48.878;9.394;2022-10-31T07:13:12;13.00;99.90
10468;DHT22;5281;48.878;9.394;2022-10-31T07:15:41;13.00;99.90
10468;DHT22;5281;48.878;9.394;2022-10-31T07:18:16;13.00;99.90
10468;DHT22;5281;48.878;9.394;2022-10-31T07:20:42;13.00;99.90
10468;DHT22;5281;48.878;9.394;2022-10-31T07:23:10;13.10;99.90
10468;DHT22;5281;48.878;9.394;2022-10-31T07:25:37;13.10;99.90
10468;DHT22;5281;48.878;9.394;2022-10-31T07:28:04;13.00;99.90
10468;DHT22;5281;48.878;9.394;2022-10-31T07:30:31;12.90;99.90
10468;DHT22;5281;48.878;9.394;2022-10-31T07:32:57;12.90;99.90
10468;DHT22;5281;48.878;9.394;2022-10-31T07:35:27;12.70;99.90
10468;DHT22;5281;48.878;9.394;2022-10-31T07:37:54;12.60;99.90
10468;DHT22;5281;48.878;9.394;2022-10-31T07:40:22;12.60;99.90
10468;DHT22;5281;48.878;9.394;2022-10-31T07:42:50;12.60;99.90
10468;DHT22;5281;48.878;9.394;2022-10-31T07:45:19;12.70;99.90
10468;DHT22;5281;48.878;9.394;2022-10-31T07:47:47;12.90;99.90
10468;DHT22;5281;48.878;9.394;2022-10-31T07:50:16;13.10;99.90
10468;DHT22;5281;48.878;9.394;2022-10-31T07:52:44;13.30;99.90
10468;DHT22;5281;48.878;9.394;2022-10-31T07:55:11;13.50;99.90
10468;DHT22;5281;48.878;9.394;2022-10-31T07:57:38;13.60;99.90
10468;DHT22;5281;48.878;9.394;2022-10-31T08:00:06;13.70;99.90
10468;DHT22;5281;48.878;9.394;2022-10-31T08:02:33;13.70;99.90
10468;DHT22;5281;48.878;9.394;2022-10-31T08:05:00;13.80;99.90
10468;DHT22;5281;48.878;9.394;2022-10-31T08:07:27;13.90;99.90
10468;DHT22;5281;48.878;9.394;2022-10-31T08:09:56;14.00;99.90
10468;DHT22;5281;48.878;9.394;2022-10-31T08:12:23;14.20;99.90
10468;DHT22;5281;48.878;9.394;2022-10-31T08:14:49;14.40;99.90
10468;DHT22;5281;48.878;9.394;2022-10-31T08:17:16;14.50;99.90
10468;DHT22;5281;48.878;9.394;2022-10-31T08:19:43;14.70;99.90
10468;DHT22;5281;48.878;9.394;2022-10-31T08:22:10;14.90;99.90
10468;DHT22;5281;48.878;9.394;2022-10-31T08:24:36;15.00;99.90
10468;DHT22;5281;48.878;9.394;2022-10-31T08:27:04;15.10;99.90
10468;DHT22;5281;48.878;9.394;2022-10-31T08:29:31;15.20;99.90
10468;DHT22;5281;48.878;9.394;2022-10-31T08:31:58;15.10;99.90
10468;DHT22;5281;48.878;9.394;2022-10-31T08:34:25;15.00;99.90
10468;DHT22;5281;48.878;9.394;2022-10-31T08:36:52;14.90;99.90
10468;DHT22;5281;48.878;9.394;2022-10-31T08:39:19;14.80;99.90
10468;DHT22;5281;48.878;9.394;2022-10-31T08:41:45;14.70;99.90
10468;DHT22;5281;48.878;9.394;2022-10-31T08:44:14;14.80;99.90
10468;DHT22;5281;48.878;9.394;2022-10-31T08:46:41;15.10;99.90
10468;DHT22;5281;48.878;9.394;2022-10-31T08:49:07;15.30;99.90
10468;DHT22;5281;48.878;9.394;2022-10-31T08:51:34;15.60;99.90
10468;DHT22;5281;48.878;9.394;2022-10-31T08:54:01;15.80;99.90
10468;DHT22;5281;48.878;9.394;2022-10-31T08:56:27;16.00;99.90
10468;DHT22;5281;48.878;9.394;2022-10-31T08:58:55;16.10;99.90
10468;DHT22;5281;48.878;9.394;2022-10-31T09:01:23;16.30;99.90
10468;DHT22;5281;48.878;9.394;2022-10-31T09:03:50;16.50;99.90
10468;DHT22;5281;48.878;9.394;2022-10-31T09:06:17;16.70;99.90
10468;DHT22;5281;48.878;9.394;2022-10-31T09:08:43;16.90;99.90
10468;DHT22;5281;48.878;9.394;2022-10-31T09:11:10;17.10;99.90
10468;DHT22;5281;48.878;9.394;2022-10-31T09:13:37;17.30;99.90
10468;DHT22;5281;48.878;9.394;2022-10-31T09:16:04;17.40;99.90
10468;DHT22;5281;48.878;9.394;2022-10-31T09:18:32;17.50;99.90
10468;DHT22;5281;48.878;9.394;2022-10-31T09:20:59;17.70;99.90
10468;DHT22;5281;48.878;9.394;2022-10-31T09:23:27;17.90;99.90
10468;DHT22;5281;48.878;9.394;2022-10-31T09:25:54;18.00;99.90
10468;DHT22;5281;48.878;9.394;2022-10-31T09:28:23;18.10;99.90
10468;DHT22;5281;48.878;9.394;2022-10-31T09:30:51;18.20;99.90
10468;DHT22;5281;48.878;9.394;2022-10-31T09:33:19;18.20;99.90
10468;DHT22;5281;48.878;9.394;2022-10-31T09:35:47;18.30;99.90
10468;DHT22;5281;48.878;9.394;2022-10-31T09:38:16;18.40;99.90
10468;DHT22;5281;48.878;9.394;2022-10-31T09:40:46;18.50;99.90
10468;DHT22;5281;48.878;9.394;2022-10-31T09:43:15;18.60;99.90
10468;DHT22;5281;48.878;9.394;2022-10-31T09:45:53;18.50;99.90
10468;DHT22;5281;48.878;9.394;2022-10-31T09:48:31;18.60;99.90
10468;DHT22;5281;48.878;9.394;2022-10-31T09:51:07;18.60;99.90
10468;DHT22;5281;48.878;9.394;2022-10-31T09:53:39;18.40;99.90
10468;DHT22;5281;48.878;9.394;2022-10-31T09:56:10;18.50;99.90
10468;DHT22;5281;48.878;9.394;2022-10-31T09:58:41;18.70;99.90
10468;DHT22;5281;48.878;9.394;2022-10-31T10:01:27;18.90;99.90
10468;DHT22;5281;48.878;9.394;2022-10-31T10:03:57;19.00;99.90
10468;DHT22;5281;48.878;9.394;2022-10-31T10:06:28;19.10;99.90
10468;DHT22;5281;48.878;9.394;2022-10-31T10:08:56;18.90;99.90
10468;DHT22;5281;48.878;9.394;2022-10-31T10:11:36;18.70;99.90
10468;DHT22;5281;48.878;9.394;2022-10-31T10:14:19;18.70;99.90
10468;DHT22;5281;48.878;9.394;2022-10-31T10:17:03;18.80;99.90
10468;DHT22;5281;48.878;9.394;2022-10-31T10:19:49;18.90;99.90
10468;DHT22;5281;48.878;9.394;2022-10-31T10:22:24;19.20;99.90
10468;DHT22;5281;48.878;9.394;2022-10-31T10:25:03;19.40;99.90
10468;DHT22;5281;48.878;9.394;2022-10-31T10:27:46;19.60;99.90
10468;DHT22;5281;48.878;9.394;2022-10-31T10:30:16;19.80;99.90
10468;DHT22;5281;48.878;9.394;2022-10-31T10:32:45;20.00;99.90
10468;DHT22;5281;48.878;9.394;2022-10-31T10:35:20;20.20;99.90
10468;DHT22;5281;48.878;9.394;2022-10-31T10:37:50;20.30;99.90
10468;DHT22;5281;48.878;9.394;2022-10-31T10:40:21;20.40;99.90
10468;DHT22;5281;48.878;9.394;2022-10-31T10:42:55;20.20;99.90
10468;DHT22;5281;48.878;9.394;2022-10-31T10:45:46;20.00;99.90
10468;DHT22;5281;48.878;9.394;2022-10-31T10:48:41;20.00;99.90
10468;DHT22;5281;48.878;9.394;2022-10-31T10:51:20;19.80;99.90
10468;DHT22;5281;48.878;9.394;2022-10-31T10:53:55;19.70;99.90
10468;DHT22;5281;48.878;9.394;2022-10-31T10:56:44;19.70;99.90
10468;DHT22;5281;48.878;9.394;2022-10-31T10:59:15;20.00;99.90
10468;DHT22;5281;48.878;9.394;2022-10-31T11:01:43;20.30;99.90
10468;DHT22;5281;48.878;9.394;2022-10-31T11:04:27;20.40;99.90
10468;DHT22;5281;48.878;9.394;2022-10-31T11:07:03;20.30;99.90
10468;DHT22;5281;48.878;9.394;2022-10-31T11:09:31;20.20;99.90
10468;DHT22;5281;48.878;9.394;2022-10-31T11:11:59;20.10;99.90
10468;DHT22;5281;48.878;9.394;2022-10-31T11:14:27;20.20;99.90
10468;DHT22;5281;48.878;9.394;2022-10-31T11:17:06;20.50;99.90
10468;DHT22;5281;48.878;9.394;2022-10-31T11:19:34;20.70;99.90
10468;DHT22;5281;48.878;9.394;2022-10-31T11:22:06;20.90;99.90
10468;DHT22;5281;48.878;9.394;2022-10-31T11:24:40;21.10;99.90
10468;DHT22;5281;48.878;9.394;2022-10-31T11:27:21;21.20;99.90
10468;DHT22;5281;48.878;9.394;2022-10-31T11:29:48;21.30;99.90
10468;DHT22;5281;48.878;9.394;2022-10-31T11:32:19;21.40;99.90
10468;DHT22;5281;48.878;9.394;2022-10-31T11:34:49;21.50;99.90
10468;DHT22;5281;48.878;9.394;2022-10-31T11:37:20;21.60;99.90
10468;DHT22;5281;48.878;9.394;2022-10-31T11:39:52;21.70;99.90
10468;DHT22;5281;48.878;9.394;2022-10-31T11:42:24;21.70;99.90
10468;DHT22;5281;48.878;9.394;2022-10-31T11:44:52;21.70;99.90
10468;DHT22;5281;48.878;9.394;2022-10-31T11:47:25;21.40;99.90
10468;DHT22;5281;48.878;9.394;2022-10-31T11:49:53;21.20;99.90
10468;DHT22;5281;48.878;9.394;2022-10-31T11:52:24;21.30;99.90
10468;DHT22;5281;48.878;9.394;2022-10-31T11:54:54;21.50;99.90
10468;DHT22;5281;48.878;9.394;2022-10-31T11:57:26;21.50;99.90
10468;DHT22;5281;48.878;9.394;2022-10-31T11:59:55;21.70;99.90
10468;DHT22;5281;48.878;9.394;2022-10-31T12:02:23;21.80;99.90
10468;DHT22;5281;48.878;9.394;2022-10-31T12:04:57;21.90;99.90
10468;DHT22;5281;48.878;9.394;2022-10-31T12:07:25;22.10;99.90
10468;DHT22;5281;48.878;9.394;2022-10-31T12:09:53;22.20;99.90
10468;DHT22;5281;48.878;9.394;2022-10-31T12:12:38;22.40;99.90
10468;DHT22;5281;48.878;9.394;2022-10-31T12:15:19;22.50;99.90
10468;DHT22;5281;48.878;9.394;2022-10-31T12:17:57;22.70;99.90
10468;DHT22;5281;48.878;9.394;2022-10-31T12:20:34;22.60;99.90
10468;DHT22;5281;48.878;9.394;2022-10-31T12:23:08;22.40;99.90
10468;DHT22;5281;48.878;9.394;2022-10-31T12:25:44;22.50;99.90
10468;DHT22;5281;48.878;9.394;2022-10-31T12:28:30;22.50;99.90
10468;DHT22;5281;48.878;9.394;2022-10-31T12:31:09;22.60;99.90
10468;DHT22;5281;48.878;9.394;2022-10-31T12:33:47;22.60;99.90
10468;DHT22;5281;48.878;9.394;2022-10-31T12:36:32;22.30;99.90
10468;DHT22;5281;48.878;9.394;2022-10-31T12:39:24;22.00;99.90
10468;DHT22;5281;48.878;9.394;2022-10-31T12:41:56;21.90;99.90
10468;DHT22;5281;48.878;9.394;2022-10-31T12:45:00;21.80;99.90
10468;DHT22;5281;48.878;9.394;2022-10-31T12:47:59;21.90;99.90
10468;DHT22;5281;48.878;9.394;2022-10-31T12:50:47;21.90;99.90
10468;DHT22;5281;48.878;9.394;2022-10-31T12:53:26;21.80;99.90
10468;DHT22;5281;48.878;9.394;2022-10-31T12:56:02;21.70;99.90
10468;DHT22;5281;48.878;9.394;2022-10-31T12:58:36;21.80;99.90
10468;DHT22;5281;48.878;9.394;2022-10-31T13:01:09;21.90;99.90
10468;DHT22;5281;48.878;9.394;2022-10-31T13:03:44;22.10;99.90
10468;DHT22;5281;48.878;9.394;2022-10-31T13:06:16;22.20;99.90
10468;DHT22;5281;48.878;9.394;2022-10-31T13:08:47;22.30;99.90
10468;DHT22;5281;48.878;9.394;2022-10-31T13:11:16;22.20;99.90
10468;DHT22;5281;48.878;9.394;2022-10-31T13:14:00;22.00;99.90
10468;DHT22;5281;48.878;9.394;2022-10-31T13:16:32;21.80;99.90
10468;DHT22;5281;48.878;9.394;2022-10-31T13:19:04;21.60;99.90
10468;DHT22;5281;48.878;9.394;2022-10-31T13:21:38;21.70;99.90
10468;DHT22;5281;48.878;9.394;2022-10-31T13:24:12;21.60;99.90
10468;DHT22;5281;48.878;9.394;2022-10-31T13:26:43;21.50;99.90
10468;DHT22;5281;48.878;9.394;2022-10-31T13:29:18;21.60;99.90
10468;DHT22;5281;48.878;9.394;2022-10-31T13:31:46;21.60;99.90
10468;DHT22;5281;48.878;9.394;2022-10-31T13:34:21;21.70;99.90
10468;DHT22;5281;48.878;9.394;2022-10-31T13:36:56;21.70;99.90
10468;DHT22;5281;48.878;9.394;2022-10-31T13:39:31;21.70;99.90
10468;DHT22;5281;48.878;9.394;2022-10-31T13:42:03;21.70;99.90
10468;DHT22;5281;48.878;9.394;2022-10-31T13:44:35;21.70;99.90
10468;DHT22;5281;48.878;9.394;2022-10-31T13:47:18;21.60;99.90
10468;DHT22;5281;48.878;9.394;2022-10-31T13:49:46;21.60;99.90
10468;DHT22;5281;48.878;9.394;2022-10-31T13:52:15;21.60;99.90
10468;DHT22;5281;48.878;9.394;2022-10-31T13:54:44;21.60;99.90
10468;DHT22;5281;48.878;9.394;2022-10-31T13:57:21;21.60;99.90
10468;DHT22;5281;48.878;9.394;2022-10-31T13:59:52;21.70;99.90
10468;DHT22;5281;48.878;9.394;2022-10-31T14:02:25;21.80;99.90
10468;DHT22;5281;48.878;9.394;2022-10-31T14:04:56;21.90;99.90
10468;DHT22;5281;48.878;9.394;2022-10-31T14:07:25;22.10;99.90
10468;DHT22;5281;48.878;9.394;2022-10-31T14:09:55;22.30;99.90
10468;DHT22;5281;48.878;9.394;2022-10-31T14:12:26;22.40;99.90
10468;DHT22;5281;48.878;9.394;2022-10-31T14:14:58;22.40;99.90
10468;DHT22;5281;48.878;9.394;2022-10-31T14:17:27;22.50;99.90
10468;DHT22;5281;48.878;9.394;2022-10-31T14:20:24;22.60;99.90
10468;DHT22;5281;48.878;9.394;2022-10-31T14:22:51;22.60;99.90
10468;DHT22;5281;48.878;9.394;2022-10-31T14:25:29;22.40;99.90
10468;DHT22;5281;48.878;9.394;2022-10-31T14:27:57;22.00;99.90
10468;DHT22;5281;48.878;9.394;2022-10-31T14:30:27;21.80;99.90
10468;DHT22;5281;48.878;9.394;2022-10-31T14:32:58;21.60;99.90
10468;DHT22;5281;48.878;9.394;2022-10-31T14:35:34;21.50;99.90
10468;DHT22;5281;48.878;9.394;2022-10-31T14:38:15;21.40;99.90
10468;DHT22;5281;48.878;9.394;2022-10-31T14:41:09;21.20;99.90
10468;DHT22;5281;48.878;9.394;2022-10-31T14:43:56;21.00;99.90
10468;DHT22;5281;48.878;9.394;2022-10-31T14:46:39;20.70;99.90
10468;DHT22;5281;48.878;9.394;2022-10-31T14:49:31;20.40;99.90
10468;DHT22;5281;48.878;9.394;2022-10-31T14:52:01;20.00;99.90
10468;DHT22;5281;48.878;9.394;2022-10-31T14:54:32;20.00;99.90
10468;DHT22;5281;48.878;9.394;2022-10-31T14:57:04;20.00;99.90
10468;DHT22;5281;48.878;9.394;2022-10-31T14:59:34;20.00;99.90
10468;DHT22;5281;48.878;9.394;2022-10-31T15:02:10;19.90;99.90
10468;DHT22;5281;48.878;9.394;2022-10-31T15:04:39;19.90;99.90
10468;DHT22;5281;48.878;9.394;2022-10-31T15:07:10;19.90;99.90
10468;DHT22;5281;48.878;9.394;2022-10-31T15:09:40;19.90;99.90
10468;DHT22;5281;48.878;9.394;2022-10-31T15:12:26;19.90;99.90
10468;DHT22;5281;48.878;9.394;2022-10-31T15:14:53;19.90;99.90
10468;DHT22;5281;48.878;9.394;2022-10-31T15:17:22;19.80;99.90
10468;DHT22;5281;48.878;9.394;2022-10-31T15:19:50;19.70;99.90
10468;DHT22;5281;48.878;9.394;2022-10-31T15:22:19;19.60;99.90
10468;DHT22;5281;48.878;9.394;2022-10-31T15:24:48;19.50;99.90
10468;DHT22;5281;48.878;9.394;2022-10-31T15:27:21;19.40;99.90
10468;DHT22;5281;48.878;9.394;2022-10-31T15:29:50;19.40;99.90
10468;DHT22;5281;48.878;9.394;2022-10-31T15:32:20;19.30;99.90
10468;DHT22;5281;48.878;9.394;2022-10-31T15:34:50;19.30;99.90
10468;DHT22;5281;48.878;9.394;2022-10-31T15:37:18;19.20;99.90
10468;DHT22;5281;48.878;9.394;2022-10-31T15:39:48;19.20;99.90
10468;DHT22;5281;48.878;9.394;2022-10-31T15:42:19;19.10;99.90
10468;DHT22;5281;48.878;9.394;2022-10-31T15:44:50;19.00;99.90
10468;DHT22;5281;48.878;9.394;2022-10-31T15:47:20;18.90;99.90
10468;DHT22;5281;48.878;9.394;2022-10-31T15:49:53;18.90;99.90
10468;DHT22;5281;48.878;9.394;2022-10-31T15:52:27;18.80;99.90
10468;DHT22;5281;48.878;9.394;2022-10-31T15:54:57;18.70;99.90
10468;DHT22;5281;48.878;9.394;2022-10-31T15:57:25;18.60;99.90
10468;DHT22;5281;48.878;9.394;2022-10-31T15:59:52;18.40;99.90
10468;DHT22;5281;48.878;9.394;2022-10-31T16:02:22;18.30;99.90
10468;DHT22;5281;48.878;9.394;2022-10-31T16:04:55;18.10;99.90
10468;DHT22;5281;48.878;9.394;2022-10-31T16:07:22;18.00;99.90
10468;DHT22;5281;48.878;9.394;2022-10-31T16:09:51;17.90;99.90
10468;DHT22;5281;48.878;9.394;2022-10-31T16:12:19;17.70;99.90